Fairmont Hot Springs, British Columbia

4:43 AM MDT on March 23, 2017 (GMT -0600)
Ruault Ranch | | Change Station

Elev 2831 ft 50.43 °N, 115.99 °W | Updated 1 minute ago

Partly Cloudy
Partly Cloudy
34.1 °F
Feels Like 34 °F
N
0.0
Wind Variable Wind from SSW
Gusts 1.0 mph

Today
High -- | Low -- °F
--% Chance of Precip.
Yesterday
High -- | Low -- °F
Precip. -- in
Pressure 29.89 in
Visibility 25.0 miles
Clouds Few 7500 ft
Mostly Cloudy 14000 ft
Windchill 34 °F
Dew Point 30 °F
Humidity 86%
Rainfall 0.00 in
Snow Depth Not available.
7:38 AM 8:01 PM
Waning Crescent, 24% visible
METAR CYXC 231000Z 00000KT 25SM FEW075 BKN140 01/00 A2984 RMK AC2AC4 SLP122
Pressure 29.89 in
Visibility 25.0 miles
Clouds Few 7500 ft
Mostly Cloudy 14000 ft
Windchill 34 °F
Dew Point 30 °F
Humidity 86%
Rainfall 0.00 in
Snow Depth Not available.
7:38 AM 8:01 PM
Waning Crescent, 24% visible
METAR CYXC 231000Z 00000KT 25SM FEW075 BKN140 01/00 A2984 RMK AC2AC4 SLP122

Get Severe Weather Alerts

Thanks for signing up!

Be on the lookout for a verification email in your inbox.

You'll start receiving the daily forecast at 8 AM.

×

10-Day Weather Forecast

Almanac

Astronomy

Mar. 23, 2017 Rise Set
Actual Time
Civil Twilight
Nautical Twilight
Astronomical Twilight
Moon
Length of Visible Light
Length of Day
Tomorrow will be .
, % of the Moon is Illuminated

Today's Extremes

Country Highs Country Lows

Community

WunderPhotos

Upload Photos

1,962,540 photos uploaded!

WunderBlog® & News

Nearby

Air Quality

  Air Quality AQ Index Pollutant
Not available.

Snow Depth

Station Depth Elevation

Earthquake Activity

City Distance Mag. Time & Date
Minimum magnitude displayed is 2.5.

Earthquake Activity

City Distance Mag. Time & Date
Minimum magnitude displayed is 2.5.

Coastal Water Temperatures

Place Temperature

Stations

Nearby Weather Stations

Station Location Temp. Windchill Dew Point Humidity Wind Precip. Elev Updated Type
                   

Watches & Warnings

There are currently no watches in effect.